Terminal Aerodrome Forecast
Issued by NWS

Home | Current Version | Previous Version | Text Only | Print | Product List | Glossary On
Versions: 1 2 3 4 5 6 7 8 9 10 11 12 13 14
000
FTUS45 KTFX 271738
TAFHVR
TAF
KHVR 271738Z 2718/2818 28007KT P6SM BKN120
     FM272100 28012G18KT P6SM SCT100 BKN150
     FM280300 25008KT P6SM SCT120=

USA.gov is the U.S. government's official web portal to all federal, state and local government web resources and services.